Time;durP1;ratioP1;P1;durP2;ratioP2;P2;SDS_P1;SDS_P2;PMS_P1;PMS_P2;Temp;Humidity;BMP_temperature;BMP_pressure;BME280_temperature;BME280_humidity;BME280_pressure;Samples;Min_cycle;Max_cycle;Signal;HPM_P1;HPM_P2
2024/02/06 08:59:16;;;;;;;6.33;1.07;;;10.60;99.90;;;;;;4958693;23;20243;-79
2024/02/06 09:01:43;;;;;;;10.57;1.83;;;10.60;99.90;;;;;;4956339;28;20239;-83
2024/02/06 09:04:10;;;;;;;7.03;2.00;;;10.70;99.90;;;;;;4950278;29;20242;-78
2024/02/06 09:06:37;;;;;;;5.93;1.50;;;10.80;99.90;;;;;;4943927;29;20269;-76
2024/02/06 09:09:04;;;;;;;4.77;2.43;;;10.80;99.90;;;;;;4937026;29;20255;-77
2024/02/06 09:11:32;;;;;;;3.80;1.87;;;10.80;99.90;;;;;;4936604;29;20251;-80
2024/02/06 09:13:59;;;;;;;2.97;1.17;;;10.80;99.90;;;;;;4951221;29;20766;-75
2024/02/06 09:16:27;;;;;;;4.77;2.13;;;10.80;99.90;;;;;;4956392;29;20697;-76
2024/02/06 09:18:55;;;;;;;3.00;1.40;;;10.80;99.90;;;;;;4956390;29;20267;-76
2024/02/06 09:21:23;;;;;;;5.97;1.50;;;10.90;99.90;;;;;;4955730;29;20262;-76
2024/02/06 09:23:50;;;;;;;5.57;1.40;;;10.90;99.90;;;;;;4955693;28;20227;-81
2024/02/06 09:26:18;;;;;;;3.07;1.70;;;10.90;99.90;;;;;;4955878;29;20697;-79
2024/02/06 09:28:45;;;;;;;6.13;1.23;;;10.90;99.90;;;;;;4956231;29;20254;-76
2024/02/06 09:31:12;;;;;;;5.50;1.70;;;10.90;99.90;;;;;;4957024;29;20247;-86
2024/02/06 09:33:41;;;;;;;3.27;1.10;;;10.90;99.90;;;;;;4955503;29;20251;-76
2024/02/06 09:36:08;;;;;;;5.73;1.50;;;11.00;99.90;;;;;;4955533;29;20220;-74
2024/02/06 09:38:35;;;;;;;2.43;1.03;;;11.00;99.90;;;;;;4955622;29;20240;-77
2024/02/06 09:41:05;;;;;;;3.77;1.50;;;11.00;99.90;;;;;;4956232;29;20215;-76
2024/02/06 09:43:32;;;;;;;4.73;1.37;;;11.00;99.90;;;;;;4956002;29;20267;-75
2024/02/06 09:46:01;;;;;;;4.97;1.53;;;10.90;99.90;;;;;;4959673;29;20244;-82
2024/02/06 09:48:28;;;;;;;3.97;1.20;;;11.00;99.90;;;;;;4957143;29;20243;-75
2024/02/06 09:50:57;;;;;;;7.20;1.20;;;11.00;99.90;;;;;;4957439;28;20219;-77
2024/02/06 09:53:25;;;;;;;4.10;1.60;;;11.20;99.90;;;;;;4956086;29;20228;-74
2024/02/06 09:55:52;;;;;;;11.40;2.57;;;11.10;99.90;;;;;;4957658;28;20211;-78
2024/02/06 09:58:19;;;;;;;3.03;1.50;;;11.00;99.90;;;;;;4962318;28;20212;-80
2024/02/06 10:00:48;;;;;;;6.00;1.50;;;11.00;99.90;;;;;;4956190;28;20267;-75
2024/02/06 10:03:22;;;;;;;3.87;1.20;;;11.10;99.90;;;;;;4953854;28;20232;-75
2024/02/06 10:05:51;;;;;;;2.73;0.80;;;11.10;99.90;;;;;;4954290;28;20734;-75
2024/02/06 10:08:20;;;;;;;1.97;1.17;;;11.10;99.90;;;;;;4955344;29;20291;-75
2024/02/06 10:10:48;;;;;;;3.67;1.10;;;11.20;99.90;;;;;;4955627;28;20334;-77
2024/02/06 10:13:16;;;;;;;3.20;1.23;;;11.20;99.90;;;;;;4954410;29;20259;-75
2024/02/06 10:15:43;;;;;;;6.07;1.30;;;11.10;99.90;;;;;;4953487;29;20236;-73
2024/02/06 10:18:10;;;;;;;6.27;1.30;;;11.10;99.90;;;;;;4953574;29;20211;-75
2024/02/06 10:20:44;;;;;;;5.53;2.10;;;11.10;99.90;;;;;;4953027;29;20300;-73
2024/02/06 10:23:12;;;;;;;7.43;1.40;;;11.10;99.90;;;;;;4952964;29;20590;-73
2024/02/06 10:25:41;;;;;;;4.27;1.60;;;11.20;99.90;;;;;;4953965;29;20290;-73
2024/02/06 10:28:08;;;;;;;5.50;2.33;;;11.20;99.90;;;;;;4952879;29;20212;-74
2024/02/06 10:30:35;;;;;;;2.07;0.90;;;11.30;99.90;;;;;;4953144;28;20611;-79
2024/02/06 10:33:13;;;;;;;5.60;1.27;;;11.30;99.90;;;;;;4952629;29;20228;-74
2024/02/06 10:35:40;;;;;;;3.43;1.10;;;11.30;99.90;;;;;;4952536;29;20298;-76
2024/02/06 10:38:11;;;;;;;4.90;1.07;;;11.30;99.90;;;;;;4952196;29;20944;-74
2024/02/06 10:40:41;;;;;;;4.10;1.40;;;11.30;99.90;;;;;;4953013;29;20282;-77
2024/02/06 10:43:08;;;;;;;5.37;1.10;;;11.50;99.90;;;;;;4952292;29;20224;-77
2024/02/06 10:45:35;;;;;;;2.07;1.20;;;11.50;99.90;;;;;;4953107;29;20207;-75
2024/02/06 10:48:03;;;;;;;7.07;1.23;;;11.40;99.90;;;;;;4952297;29;20214;-77
2024/02/06 10:50:30;;;;;;;2.70;1.00;;;11.30;99.90;;;;;;4952416;29;20602;-80
2024/02/06 10:52:58;;;;;;;8.37;1.77;;;11.30;99.90;;;;;;4952405;29;20256;-77
2024/02/06 10:55:26;;;;;;;2.07;1.10;;;11.30;99.90;;;;;;4952674;29;20635;-75
2024/02/06 10:58:05;;;;;;;4.10;1.20;;;11.30;99.90;;;;;;4951290;29;20216;-81
2024/02/06 11:00:34;;;;;;;5.60;1.67;;;11.40;99.90;;;;;;4952636;29;20614;-77
2024/02/06 11:03:05;;;;;;;4.80;1.00;;;11.40;99.90;;;;;;4952463;29;20258;-77
2024/02/06 11:05:39;;;;;;;1.77;1.13;;;11.30;99.90;;;;;;4953498;28;20275;-76
2024/02/06 11:08:09;;;;;;;3.37;1.93;;;11.30;99.90;;;;;;4954064;28;20222;-84
2024/02/06 11:10:41;;;;;;;2.93;1.13;;;11.40;99.90;;;;;;4956856;29;20310;-77
2024/02/06 11:13:24;;;;;;;6.70;1.40;;;11.40;99.90;;;;;;4955472;28;20231;-76
2024/02/06 11:15:53;;;;;;;4.00;0.90;;;11.60;99.90;;;;;;4956277;29;20286;-78
2024/02/06 11:18:21;;;;;;;4.40;1.33;;;11.50;99.90;;;;;;4956549;29;20208;-78
2024/02/06 11:20:52;;;;;;;3.77;1.07;;;11.60;99.90;;;;;;4956461;29;20603;-77
2024/02/06 11:23:19;;;;;;;2.70;1.23;;;11.60;99.90;;;;;;4955963;29;20264;-82
2024/02/06 11:25:48;;;;;;;3.03;0.97;;;11.60;99.90;;;;;;4956083;29;20259;-78
2024/02/06 11:28:18;;;;;;;7.00;1.60;;;11.50;99.90;;;;;;4956449;29;20212;-77
2024/02/06 11:30:46;;;;;;;6.97;2.20;;;11.50;99.90;;;;;;4956037;29;20212;-85
2024/02/06 11:33:14;;;;;;;2.93;1.00;;;11.50;99.90;;;;;;4955973;29;20236;-80
2024/02/06 11:35:41;;;;;;;4.17;1.07;;;11.50;99.90;;;;;;4956906;29;20239;-79
2024/02/06 11:38:11;;;;;;;5.50;1.00;;;11.70;99.90;;;;;;4955162;29;20212;-81
2024/02/06 11:40:41;;;;;;;2.20;0.83;;;11.80;99.90;;;;;;4956214;29;20236;-83
2024/02/06 11:43:08;;;;;;;2.80;1.00;;;11.70;99.90;;;;;;4955956;29;20247;-80
2024/02/06 11:45:38;;;;;;;5.47;1.30;;;11.70;99.90;;;;;;4956526;29;20212;-80
2024/02/06 11:48:06;;;;;;;4.00;1.33;;;11.80;99.90;;;;;;4954922;29;20236;-80
2024/02/06 11:50:40;;;;;;;2.93;0.97;;;11.80;99.90;;;;;;4955250;29;20223;-81
2024/02/06 11:53:09;;;;;;;4.43;1.23;;;11.80;99.90;;;;;;4955437;29;20895;-81
2024/02/06 11:55:36;;;;;;;4.93;1.13;;;11.80;99.90;;;;;;4955250;29;20571;-81
2024/02/06 11:58:03;;;;;;;3.57;1.37;;;11.90;99.90;;;;;;4955046;29;20271;-81
2024/02/06 12:00:30;;;;;;;5.47;1.10;;;12.00;99.90;;;;;;4955240;28;20239;-81
2024/02/06 12:02:58;;;;;;;2.83;0.80;;;12.10;99.90;;;;;;4954885;29;20635;-81
2024/02/06 12:05:26;;;;;;;6.00;1.20;;;12.10;99.90;;;;;;4955868;29;20263;-81
2024/02/06 12:07:56;;;;;;;4.97;1.00;;;12.00;99.90;;;;;;4955356;29;20212;-81
2024/02/06 12:10:25;;;;;;;4.73;1.30;;;11.90;99.90;;;;;;4955250;29;20212;-81
2024/02/06 12:12:54;;;;;;;3.73;1.00;;;12.00;99.90;;;;;;4954995;29;20244;-82
2024/02/06 12:15:22;;;;;;;3.73;1.47;;;12.10;99.90;;;;;;4955288;29;20655;-82
2024/02/06 12:17:49;;;;;;;5.83;1.00;;;12.10;99.90;;;;;;4954374;29;20207;-80
2024/02/06 12:20:19;;;;;;;4.73;1.70;;;12.00;99.90;;;;;;4954961;28;20236;-81
2024/02/06 12:22:57;;;;;;;3.30;0.80;;;11.90;99.90;;;;;;4955219;29;20232;-82
2024/02/06 12:25:24;;;;;;;3.90;0.87;;;11.90;99.90;;;;;;4954212;29;20204;-81
2024/02/06 12:27:59;;;;;;;1.33;0.70;;;12.00;99.90;;;;;;4954834;29;20208;-81
2024/02/06 12:30:27;;;;;;;4.50;0.80;;;12.00;99.90;;;;;;4955058;29;20287;-82
2024/02/06 12:32:55;;;;;;;3.23;0.90;;;12.20;99.90;;;;;;4953436;28;20607;-82
2024/02/06 12:35:24;;;;;;;2.73;0.87;;;12.40;99.90;;;;;;4954022;29;20268;-82
2024/02/06 12:37:51;;;;;;;4.10;1.17;;;12.30;99.90;;;;;;4953834;29;20718;-82
2024/02/06 12:40:19;;;;;;;6.37;1.43;;;12.20;99.90;;;;;;4953631;29;20295;-81
2024/02/06 12:42:47;;;;;;;2.33;1.23;;;12.20;99.90;;;;;;4954186;29;20623;-82
2024/02/06 12:45:15;;;;;;;2.13;0.93;;;12.20;99.90;;;;;;4953058;29;20291;-82
2024/02/06 12:47:43;;;;;;;2.20;0.80;;;12.30;99.90;;;;;;4954281;29;20208;-82
2024/02/06 12:50:11;;;;;;;4.13;0.90;;;12.30;99.90;;;;;;4953561;29;20700;-81
2024/02/06 12:52:40;;;;;;;2.97;0.80;;;12.30;99.90;;;;;;4953581;28;20275;-82
2024/02/06 12:55:08;;;;;;;4.80;2.57;;;12.20;99.90;;;;;;4953490;29;20220;-82
2024/02/06 12:57:35;;;;;;;5.17;1.20;;;12.20;99.90;;;;;;4953482;29;20251;-81
2024/02/06 13:00:03;;;;;;;3.97;0.90;;;12.30;99.90;;;;;;4954135;29;20634;-81
2024/02/06 13:02:30;;;;;;;4.97;0.90;;;12.40;99.90;;;;;;4953790;28;20232;-82
2024/02/06 13:05:08;;;;;;;2.37;1.00;;;12.40;99.90;;;;;;4954427;29;20212;-82
2024/02/06 13:07:35;;;;;;;5.30;1.17;;;12.40;99.90;;;;;;4954373;29;20216;-82
2024/02/06 13:10:05;;;;;;;6.10;1.73;;;12.40;99.90;;;;;;4954197;29;20236;-80
2024/02/06 13:12:33;;;;;;;3.30;1.03;;;12.40;99.90;;;;;;4953944;29;20295;-81
2024/02/06 13:15:02;;;;;;;3.97;0.80;;;12.30;99.90;;;;;;4954137;29;20233;-81
2024/02/06 13:17:29;;;;;;;1.67;0.90;;;12.20;99.90;;;;;;4954071;29;20220;-82
2024/02/06 13:20:05;;;;;;;9.77;1.13;;;12.20;99.90;;;;;;4953994;29;20263;-82
2024/02/06 13:22:32;;;;;;;2.00;0.67;;;12.20;99.90;;;;;;4953931;29;20224;-82
2024/02/06 13:24:59;;;;;;;2.13;0.87;;;12.10;99.90;;;;;;4953601;29;20208;-82
2024/02/06 13:27:27;;;;;;;3.77;1.17;;;12.00;99.90;;;;;;4952747;29;20670;-82
2024/02/06 13:29:54;;;;;;;4.37;0.93;;;12.00;99.90;;;;;;4953190;29;20244;-83
2024/02/06 13:32:21;;;;;;;4.00;1.00;;;12.00;99.90;;;;;;4952423;28;20357;-80
2024/02/06 13:34:48;;;;;;;13.10;2.07;;;12.10;99.90;;;;;;4953821;29;20212;-82
2024/02/06 13:37:15;;;;;;;3.70;1.37;;;12.20;99.90;;;;;;4953206;29;20231;-82
2024/02/06 13:39:43;;;;;;;4.73;0.93;;;12.30;99.90;;;;;;4953429;29;20208;-82
2024/02/06 13:42:11;;;;;;;3.67;0.80;;;12.30;99.90;;;;;;4953754;29;20212;-83
2024/02/06 13:44:40;;;;;;;3.97;0.80;;;12.20;99.90;;;;;;4953757;29;20735;-82
2024/02/06 13:47:08;;;;;;;2.43;1.00;;;12.10;99.90;;;;;;4954684;29;20239;-82
2024/02/06 13:49:36;;;;;;;1.23;0.60;;;12.10;99.90;;;;;;4954232;29;20228;-83
2024/02/06 13:52:03;;;;;;;6.03;0.70;;;12.00;99.90;;;;;;4954943;29;20258;-82
2024/02/06 13:54:30;;;;;;;1.40;0.60;;;12.00;99.90;;;;;;4953843;28;20200;-80
2024/02/06 13:56:57;;;;;;;1.30;0.67;;;11.90;99.90;;;;;;4953630;29;20207;-82
2024/02/06 13:59:24;;;;;;;3.53;0.90;;;11.90;99.90;;;;;;4953934;28;20733;-81
2024/02/06 14:01:52;;;;;;;6.53;1.00;;;12.00;99.90;;;;;;4951228;29;20270;-81
2024/02/06 14:04:20;;;;;;;2.53;0.97;;;12.00;99.90;;;;;;4954088;29;20228;-79
2024/02/06 14:06:47;;;;;;;3.27;2.20;;;12.00;99.90;;;;;;4953800;29;20678;-79
2024/02/06 14:09:14;;;;;;;5.40;1.00;;;11.80;99.90;;;;;;4954744;29;20282;-81
2024/02/06 14:11:41;;;;;;;4.50;1.10;;;11.70;99.90;;;;;;4954877;29;20214;-79
2024/02/06 14:14:08;;;;;;;4.60;1.17;;;11.70;99.90;;;;;;4954452;29;20234;-82
2024/02/06 14:16:36;;;;;;;3.47;1.20;;;11.60;99.90;;;;;;4954606;29;20635;-83
2024/02/06 14:19:05;;;;;;;3.17;0.60;;;11.60;99.90;;;;;;4951266;29;20235;-81
2024/02/06 14:21:34;;;;;;;2.87;1.23;;;11.70;99.90;;;;;;4953658;28;20228;-81
2024/02/06 14:24:01;;;;;;;8.03;1.10;;;11.80;99.90;;;;;;4953705;29;20288;-80
2024/02/06 14:26:28;;;;;;;1.00;0.70;;;11.80;99.90;;;;;;4954551;29;20235;-81
2024/02/06 14:28:55;;;;;;;1.77;0.70;;;11.80;99.90;;;;;;4951402;29;20248;-81
2024/02/06 14:31:23;;;;;;;1.93;0.80;;;11.70;99.90;;;;;;4954052;29;20263;-81
2024/02/06 14:33:50;;;;;;;2.83;1.00;;;11.70;99.90;;;;;;4953715;29;20215;-82
2024/02/06 14:36:18;;;;;;;3.30;0.80;;;11.80;99.90;;;;;;4953808;29;20243;-80
2024/02/06 14:38:45;;;;;;;4.17;0.90;;;11.90;99.90;;;;;;4951071;29;20207;-81
2024/02/06 14:41:13;;;;;;;2.23;0.83;;;11.90;99.90;;;;;;4953574;29;20224;-81
2024/02/06 14:43:42;;;;;;;2.20;0.63;;;11.80;99.90;;;;;;4955461;28;20227;-81
2024/02/06 14:46:09;;;;;;;3.47;0.93;;;11.70;99.90;;;;;;4957005;29;20196;-81
2024/02/06 14:48:37;;;;;;;2.67;0.90;;;11.50;99.90;;;;;;4957485;29;20655;-82
2024/02/06 14:51:06;;;;;;;1.80;0.80;;;11.40;99.90;;;;;;4957125;29;20274;-82
2024/02/06 14:53:35;;;;;;;3.00;0.83;;;11.30;99.90;;;;;;4957911;29;20698;-81
2024/02/06 14:56:02;;;;;;;4.13;1.20;;;11.30;99.90;;;;;;4955022;29;20200;-80
2024/02/06 14:58:29;;;;;;;3.40;1.27;;;11.30;99.90;;;;;;4956938;28;20214;-81
2024/02/06 15:00:56;;;;;;;0.97;0.67;;;11.30;99.90;;;;;;4957462;29;20267;-81
2024/02/06 15:03:24;;;;;;;2.67;1.00;;;11.30;99.90;;;;;;4958125;29;20259;-82
2024/02/06 15:05:50;;;;;;;8.47;1.00;;;11.30;99.90;;;;;;4957881;29;20243;-83
2024/02/06 15:08:17;;;;;;;7.73;1.70;;;11.40;99.90;;;;;;4958678;28;20287;-81
2024/02/06 15:10:46;;;;;;;1.83;0.77;;;11.40;99.90;;;;;;4957224;29;20196;-82
2024/02/06 15:13:13;;;;;;;1.40;0.80;;;11.40;99.90;;;;;;4957309;29;20226;-79
2024/02/06 15:15:40;;;;;;;5.67;1.23;;;11.40;99.90;;;;;;4957835;29;20208;-78
2024/02/06 15:18:07;;;;;;;2.37;1.00;;;11.50;99.90;;;;;;4958531;28;20255;-77
2024/02/06 15:20:34;;;;;;;5.90;1.30;;;11.50;99.90;;;;;;4955395;29;20224;-77
2024/02/06 15:23:02;;;;;;;3.10;1.17;;;11.60;99.90;;;;;;4957692;29;20224;-77
2024/02/06 15:25:29;;;;;;;3.40;1.30;;;11.50;99.90;;;;;;4957674;29;20679;-79
2024/02/06 15:27:59;;;;;;;2.57;1.13;;;11.50;99.90;;;;;;4957653;29;20243;-76
2024/02/06 15:30:26;;;;;;;5.90;1.33;;;11.50;99.90;;;;;;4957754;29;20587;-78
2024/02/06 15:32:53;;;;;;;3.90;1.00;;;11.50;99.90;;;;;;4957950;29;20309;-78
2024/02/06 15:35:21;;;;;;;2.90;1.07;;;11.50;99.90;;;;;;4958214;29;20239;-78
2024/02/06 15:37:48;;;;;;;4.23;1.10;;;11.60;99.90;;;;;;4954454;29;20292;-79
2024/02/06 15:40:15;;;;;;;2.10;1.07;;;11.60;99.90;;;;;;4956061;29;20279;-80
2024/02/06 15:42:42;;;;;;;3.40;0.93;;;11.60;99.90;;;;;;4955827;29;20271;-80
2024/02/06 15:45:11;;;;;;;6.03;1.20;;;11.70;99.90;;;;;;4955674;29;20318;-80
2024/02/06 15:47:38;;;;;;;3.93;1.20;;;11.60;99.90;;;;;;4955905;29;20212;-80
2024/02/06 15:50:06;;;;;;;3.13;1.10;;;11.60;99.90;;;;;;4955471;29;20361;-79
2024/02/06 15:52:33;;;;;;;5.83;1.10;;;11.70;99.90;;;;;;4955229;29;20591;-79
2024/02/06 15:55:00;;;;;;;5.17;0.87;;;11.70;99.90;;;;;;4954478;28;20263;-75
2024/02/06 15:57:27;;;;;;;6.70;1.37;;;11.70;99.90;;;;;;4956236;29;20286;-77
2024/02/06 15:59:54;;;;;;;6.33;1.50;;;11.70;99.90;;;;;;4956798;29;20247;-77
2024/02/06 16:02:22;;;;;;;3.17;1.17;;;11.70;99.90;;;;;;4957215;29;20279;-78
2024/02/06 16:04:49;;;;;;;4.27;1.50;;;11.70;99.90;;;;;;4957097;29;20259;-77
2024/02/06 16:07:16;;;;;;;6.10;1.70;;;11.70;99.90;;;;;;4957019;29;20255;-79
2024/02/06 16:09:43;;;;;;;3.83;1.37;;;11.70;99.90;;;;;;4956975;29;20328;-78
2024/02/06 16:12:10;;;;;;;4.83;1.57;;;11.70;99.90;;;;;;4956621;29;20669;-78
2024/02/06 16:14:36;;;;;;;3.73;1.20;;;11.70;99.90;;;;;;4957294;28;20606;-79
2024/02/06 16:17:04;;;;;;;2.33;1.40;;;11.70;99.90;;;;;;4957315;29;20236;-80
2024/02/06 16:19:34;;;;;;;4.57;1.50;;;11.70;99.90;;;;;;4957398;29;20239;-79
2024/02/06 16:22:02;;;;;;;6.50;1.30;;;11.60;99.90;;;;;;4957062;29;20235;-78
2024/02/06 16:24:29;;;;;;;6.60;1.10;;;11.70;99.90;;;;;;4956699;29;20212;-80
2024/02/06 16:26:58;;;;;;;3.33;1.13;;;11.70;99.90;;;;;;4956592;29;20235;-80
2024/02/06 16:29:25;;;;;;;8.60;1.20;;;11.70;99.90;;;;;;4955838;29;20673;-78
2024/02/06 16:31:52;;;;;;;3.23;1.30;;;11.70;99.90;;;;;;4956024;29;20238;-78
2024/02/06 16:34:19;;;;;;;3.03;1.30;;;11.70;99.90;;;;;;4956215;29;20224;-77
2024/02/06 16:36:48;;;;;;;7.27;1.60;;;11.70;99.90;;;;;;4956218;29;20650;-80
2024/02/06 16:39:14;;;;;;;4.53;1.40;;;11.70;99.90;;;;;;4954272;29;20204;-77
2024/02/06 16:41:41;;;;;;;5.90;1.20;;;11.70;99.90;;;;;;4955859;29;20275;-79
2024/02/06 16:44:08;;;;;;;7.67;1.70;;;11.70;99.90;;;;;;4956474;29;20270;-79
2024/02/06 16:46:35;;;;;;;4.90;1.27;;;11.80;99.90;;;;;;4956759;29;20239;-81
2024/02/06 16:49:02;;;;;;;1.90;1.10;;;11.70;99.90;;;;;;4956129;28;20604;-79
2024/02/06 16:51:29;;;;;;;3.67;1.10;;;11.70;99.90;;;;;;4956168;29;20204;-82
2024/02/06 16:53:59;;;;;;;3.27;0.90;;;11.70;99.90;;;;;;4956146;29;20224;-81
2024/02/06 16:56:26;;;;;;;2.17;0.90;;;11.70;99.90;;;;;;4956248;29;20227;-78
2024/02/06 16:58:53;;;;;;;6.47;2.33;;;11.60;99.90;;;;;;4955826;29;20252;-78
2024/02/06 17:01:20;;;;;;;3.30;1.80;;;11.60;99.90;;;;;;4955798;29;20267;-81
2024/02/06 17:03:47;;;;;;;5.13;1.17;;;11.60;99.90;;;;;;4956114;29;20718;-80
2024/02/06 17:06:15;;;;;;;4.00;1.07;;;11.60;99.90;;;;;;4955045;28;20235;-78
2024/02/06 17:08:43;;;;;;;5.37;1.03;;;11.70;99.90;;;;;;4956130;28;20266;-80
2024/02/06 17:11:11;;;;;;;4.23;1.60;;;11.70;99.90;;;;;;4955331;29;20227;-82
2024/02/06 17:13:38;;;;;;;10.17;1.97;;;11.60;99.90;;;;;;4955553;29;20729;-78
2024/02/06 17:16:06;;;;;;;6.10;1.33;;;11.70;99.90;;;;;;4955996;29;20427;-80
2024/02/06 17:18:33;;;;;;;1.93;1.07;;;11.60;99.90;;;;;;4955828;28;20214;-79
2024/02/06 17:21:00;;;;;;;2.73;1.03;;;11.50;99.90;;;;;;4955794;29;20250;-80
2024/02/06 17:23:27;;;;;;;1.77;0.90;;;11.50;99.90;;;;;;4956159;29;20686;-82
2024/02/06 17:25:57;;;;;;;7.50;2.07;;;11.50;99.90;;;;;;4955653;29;20242;-81
2024/02/06 17:28:26;;;;;;;4.90;1.33;;;11.50;99.90;;;;;;4955664;29;20227;-81
2024/02/06 17:30:52;;;;;;;4.50;1.40;;;11.50;99.90;;;;;;4955471;29;20211;-77
2024/02/06 17:33:19;;;;;;;6.23;1.23;;;11.40;99.90;;;;;;4955825;29;20263;-81
2024/02/06 17:35:46;;;;;;;4.37;1.60;;;11.40;99.90;;;;;;4955439;29;20244;-77
2024/02/06 17:38:13;;;;;;;2.73;1.30;;;11.40;99.90;;;;;;4954959;29;20215;-78
2024/02/06 17:40:42;;;;;;;4.43;1.37;;;11.40;99.90;;;;;;4955495;29;20620;-78
2024/02/06 17:43:09;;;;;;;7.23;1.60;;;11.40;99.90;;;;;;4954749;29;20341;-81
2024/02/06 17:45:37;;;;;;;3.87;1.40;;;11.40;99.90;;;;;;4955308;29;20667;-79
2024/02/06 17:48:05;;;;;;;2.60;1.50;;;11.40;99.90;;;;;;4954781;29;20671;-77
2024/02/06 17:50:32;;;;;;;8.37;2.00;;;11.40;99.90;;;;;;4951256;28;20204;-81
2024/02/06 17:52:59;;;;;;;5.37;1.00;;;11.40;99.90;;;;;;4955312;29;20259;-80
2024/02/06 17:55:26;;;;;;;5.53;1.33;;;11.40;99.90;;;;;;4954710;29;20652;-80
2024/02/06 17:57:53;;;;;;;8.13;1.60;;;11.40;99.90;;;;;;4954884;29;20219;-84
2024/02/06 18:00:20;;;;;;;3.47;1.27;;;11.40;99.90;;;;;;4954994;28;20236;-81
2024/02/06 18:02:49;;;;;;;3.50;1.33;;;11.40;99.90;;;;;;4954434;28;20275;-79
2024/02/06 18:05:16;;;;;;;4.07;1.00;;;11.40;99.90;;;;;;4954348;28;20620;-80
2024/02/06 18:07:43;;;;;;;4.97;1.13;;;11.40;99.90;;;;;;4954418;29;20615;-83
2024/02/06 18:10:11;;;;;;;5.13;1.67;;;11.40;99.90;;;;;;4954667;28;20259;-82
2024/02/06 18:12:38;;;;;;;3.67;1.33;;;11.50;99.90;;;;;;4954399;29;20228;-81
2024/02/06 18:15:06;;;;;;;6.70;1.50;;;11.40;99.90;;;;;;4954976;29;20242;-76
2024/02/06 18:17:33;;;;;;;2.90;1.13;;;11.40;99.90;;;;;;4956344;28;20212;-81
2024/02/06 18:20:04;;;;;;;2.30;0.97;;;11.40;99.90;;;;;;4958452;28;20243;-81
2024/02/06 18:22:31;;;;;;;9.37;1.50;;;11.40;99.90;;;;;;4958823;29;20266;-82
2024/02/06 18:24:58;;;;;;;4.33;1.30;;;11.40;99.90;;;;;;4958120;28;20243;-80
2024/02/06 18:27:25;;;;;;;2.87;1.20;;;11.30;99.90;;;;;;4958312;29;20639;-81
2024/02/06 18:29:52;;;;;;;3.03;1.10;;;11.40;99.90;;;;;;4973326;28;20293;-79
2024/02/06 18:32:19;;;;;;;4.40;1.40;;;11.30;99.90;;;;;;4953633;28;20254;-78
2024/02/06 18:34:46;;;;;;;4.00;1.03;;;11.30;99.90;;;;;;4941295;28;20254;-77
2024/02/06 18:37:14;;;;;;;5.10;1.90;;;11.40;99.90;;;;;;4953946;28;20623;-77
2024/02/06 18:39:41;;;;;;;4.83;1.53;;;11.40;99.90;;;;;;4963619;28;20215;-77
2024/02/06 18:42:10;;;;;;;5.87;1.80;;;11.40;99.90;;;;;;4945420;28;20286;-77
2024/02/06 18:44:37;;;;;;;6.50;1.70;;;11.40;99.90;;;;;;4955634;28;20682;-77
2024/02/06 18:47:05;;;;;;;2.57;1.50;;;11.40;99.90;;;;;;4956429;28;20243;-78
2024/02/06 18:49:32;;;;;;;1.60;0.70;;;11.30;99.90;;;;;;4956949;28;20212;-77
2024/02/06 18:52:00;;;;;;;7.33;2.67;;;11.30;99.90;;;;;;4957852;28;20303;-77
2024/02/06 18:54:29;;;;;;;4.20;1.37;;;11.30;99.90;;;;;;4957113;28;20286;-77
2024/02/06 18:56:56;;;;;;;11.83;1.60;;;11.30;99.90;;;;;;4970062;28;20255;-77
2024/02/06 18:59:23;;;;;;;3.80;1.03;;;11.40;99.90;;;;;;4958444;28;20255;-78
2024/02/06 19:01:50;;;;;;;4.70;1.20;;;11.40;99.90;;;;;;4968726;28;20355;-78
2024/02/06 19:04:19;;;;;;;6.27;1.30;;;11.40;99.90;;;;;;4956532;28;20282;-78
2024/02/06 19:06:46;;;;;;;7.73;1.47;;;11.40;99.90;;;;;;4949923;28;20629;-77
2024/02/06 19:09:13;;;;;;;4.90;1.97;;;11.40;99.90;;;;;;4963683;28;20251;-77
2024/02/06 19:11:44;;;;;;;2.00;1.10;;;11.30;99.90;;;;;;4975936;28;20244;-77
2024/02/06 19:14:11;;;;;;;7.10;1.13;;;11.40;99.90;;;;;;4959578;28;20259;-77
2024/02/06 19:16:40;;;;;;;4.63;1.37;;;11.30;99.90;;;;;;4956870;28;20208;-78
2024/02/06 19:19:09;;;;;;;4.63;1.20;;;11.30;99.90;;;;;;4957102;28;20295;-77
2024/02/06 19:21:42;;;;;;;3.33;1.43;;;11.30;99.90;;;;;;4970890;28;20211;-77
2024/02/06 19:24:09;;;;;;;1.83;0.90;;;11.30;99.90;;;;;;4967569;28;20227;-77
2024/02/06 19:26:36;;;;;;;5.77;1.47;;;11.30;99.90;;;;;;4973740;28;20250;-77
2024/02/06 19:29:05;;;;;;;3.93;1.50;;;11.30;99.90;;;;;;4970561;28;20214;-77
2024/02/06 19:31:32;;;;;;;3.87;1.00;;;11.30;99.90;;;;;;4961370;28;20212;-79
2024/02/06 19:33:59;;;;;;;7.10;1.50;;;11.20;99.90;;;;;;4949146;28;20227;-81
2024/02/06 19:36:26;;;;;;;5.30;0.93;;;11.30;99.90;;;;;;4957965;28;20250;-82
2024/02/06 19:38:53;;;;;;;4.93;1.00;;;11.30;99.90;;;;;;4959107;28;20211;-82
2024/02/06 19:41:20;;;;;;;3.83;2.00;;;11.30;99.90;;;;;;4953452;28;20236;-80
2024/02/06 19:43:47;;;;;;;3.57;1.57;;;11.30;99.90;;;;;;4967474;28;20270;-79
2024/02/06 19:46:17;;;;;;;2.03;0.90;;;11.30;99.90;;;;;;4963779;28;20711;-80
2024/02/06 19:48:44;;;;;;;5.27;1.30;;;11.30;99.90;;;;;;4961937;28;20212;-80
2024/02/06 19:51:12;;;;;;;2.17;1.00;;;11.30;99.90;;;;;;4955879;28;20560;-80
2024/02/06 19:53:39;;;;;;;7.13;1.33;;;11.40;99.90;;;;;;4949744;28;20220;-79
2024/02/06 19:56:09;;;;;;;2.03;0.97;;;11.40;99.90;;;;;;4960246;28;20590;-80
2024/02/06 19:58:37;;;;;;;5.63;1.40;;;11.40;99.90;;;;;;4955141;28;20213;-79
2024/02/06 20:01:04;;;;;;;4.63;1.13;;;11.40;99.90;;;;;;4961239;28;20263;-80
2024/02/06 20:03:33;;;;;;;2.90;1.30;;;11.40;99.90;;;;;;4949612;28;20263;-81
2024/02/06 20:06:00;;;;;;;2.00;0.90;;;11.40;99.90;;;;;;4961694;28;20215;-79
2024/02/06 20:08:30;;;;;;;4.83;1.00;;;11.50;99.90;;;;;;4962204;28;20634;-79
2024/02/06 20:10:57;;;;;;;6.10;1.67;;;11.50;99.90;;;;;;4956452;28;20557;-79
2024/02/06 20:13:25;;;;;;;2.23;1.17;;;11.60;99.90;;;;;;4953928;28;20726;-79
2024/02/06 20:15:52;;;;;;;4.73;1.30;;;11.60;99.90;;;;;;4951720;29;20257;-79
2024/02/06 20:18:21;;;;;;;4.23;1.17;;;11.60;99.90;;;;;;4956398;28;20745;-80
2024/02/06 20:20:49;;;;;;;4.60;0.97;;;11.60;99.90;;;;;;4973977;28;20203;-78
2024/02/06 20:23:16;;;;;;;3.77;1.80;;;11.70;99.90;;;;;;4972914;28;20270;-80
2024/02/06 20:25:43;;;;;;;3.43;1.20;;;11.60;99.90;;;;;;4974688;28;20199;-79
2024/02/06 20:28:12;;;;;;;8.47;1.13;;;11.60;99.90;;;;;;4972455;28;20651;-80
2024/02/06 20:30:39;;;;;;;2.47;1.20;;;11.70;99.90;;;;;;4974185;28;20211;-79
2024/02/06 20:33:06;;;;;;;5.07;1.67;;;11.60;99.90;;;;;;4973450;28;20488;-80
2024/02/06 20:35:34;;;;;;;2.57;1.80;;;11.60;99.90;;;;;;4974246;28;20558;-79
2024/02/06 20:38:02;;;;;;;5.20;1.53;;;11.60;99.90;;;;;;4972337;28;20619;-79
2024/02/06 20:40:29;;;;;;;4.07;1.13;;;11.60;99.90;;;;;;4954104;28;20739;-80
2024/02/06 20:42:58;;;;;;;2.27;1.27;;;11.60;99.90;;;;;;4965022;28;20244;-80
2024/02/06 20:45:25;;;;;;;4.47;0.93;;;11.70;99.90;;;;;;4956307;28;20211;-79
2024/02/06 20:47:52;;;;;;;5.10;1.13;;;11.70;99.90;;;;;;4955710;28;20631;-79
2024/02/06 20:50:19;;;;;;;4.77;0.97;;;11.70;99.90;;;;;;4956245;28;20667;-79
2024/02/06 20:52:46;;;;;;;2.73;1.13;;;11.70;99.90;;;;;;4955673;28;20719;-79
2024/02/06 20:55:15;;;;;;;3.20;0.90;;;11.70;99.90;;;;;;4956207;29;20216;-79
2024/02/06 20:57:42;;;;;;;4.73;1.33;;;11.70;99.90;;;;;;4955506;28;20280;-79
2024/02/06 21:00:11;;;;;;;3.03;0.90;;;11.70;99.90;;;;;;4966837;28;20263;-80
2024/02/06 21:02:38;;;;;;;4.87;1.13;;;11.80;99.90;;;;;;4973293;28;20239;-80
2024/02/06 21:05:06;;;;;;;1.87;1.03;;;11.80;99.90;;;;;;4974308;28;20208;-79
2024/02/06 21:07:33;;;;;;;2.93;1.20;;;11.80;99.90;;;;;;4974248;28;20262;-79
2024/02/06 21:10:00;;;;;;;3.27;1.10;;;11.70;99.90;;;;;;4973917;28;20203;-79
2024/02/06 21:12:29;;;;;;;4.60;0.90;;;11.70;99.90;;;;;;4973763;28;20219;-80
2024/02/06 21:14:56;;;;;;;5.77;1.10;;;11.70;99.90;;;;;;4972697;28;20265;-79
2024/02/06 21:17:23;;;;;;;4.70;1.40;;;11.70;99.90;;;;;;4961927;28;20218;-80
2024/02/06 21:19:50;;;;;;;7.23;1.40;;;11.70;99.90;;;;;;4972060;28;20610;-78
2024/02/06 21:22:17;;;;;;;5.13;1.43;;;11.70;99.90;;;;;;4971979;28;20210;-80
2024/02/06 21:24:44;;;;;;;8.23;1.00;;;11.70;99.90;;;;;;4971478;28;20595;-79
2024/02/06 21:27:11;;;;;;;4.07;1.10;;;11.70;99.90;;;;;;4975924;28;20301;-80
2024/02/06 21:29:40;;;;;;;8.43;1.53;;;11.70;99.90;;;;;;4986718;28;20245;-78
2024/02/06 21:32:08;;;;;;;3.10;1.07;;;11.80;99.90;;;;;;4984122;28;20208;-80
2024/02/06 21:34:35;;;;;;;4.53;1.47;;;11.80;99.90;;;;;;4971165;28;20207;-79
2024/02/06 21:37:02;;;;;;;10.13;2.43;;;11.80;99.90;;;;;;4972274;28;20266;-78
2024/02/06 21:39:29;;;;;;;4.93;0.90;;;11.70;99.90;;;;;;4968471;28;20733;-79
2024/02/06 21:41:58;;;;;;;5.87;0.83;;;11.70;99.90;;;;;;4964740;28;20778;-79
2024/02/06 21:44:25;;;;;;;5.47;0.90;;;11.70;99.90;;;;;;4958250;28;20301;-79
2024/02/06 21:46:53;;;;;;;6.50;1.10;;;11.70;99.90;;;;;;4955269;28;20215;-80